createdAt,value
2017-11-01T00:00:04.416Z,1021.21
2017-11-01T00:05:03.001Z,1021.17
2017-11-01T00:10:03.572Z,1021.27
2017-11-01T00:15:03.311Z,1021.21
2017-11-01T00:20:03.139Z,1021.24
2017-11-01T00:25:02.795Z,1021.19
2017-11-01T00:30:03.539Z,1021.11
2017-11-01T00:35:03.356Z,1021.18
2017-11-01T00:40:03.051Z,1021.1
2017-11-01T00:45:02.733Z,1021
2017-11-01T00:50:03.431Z,1021.03
2017-11-01T00:55:02.926Z,1021.05
2017-11-01T01:00:03.453Z,1021.03
2017-11-01T01:05:03.284Z,1021
2017-11-01T01:10:02.892Z,1021.03
2017-11-01T01:15:03.632Z,1021.06
2017-11-01T01:20:03.345Z,1020.98
2017-11-01T01:25:03.034Z,1020.98
2017-11-01T01:30:03.431Z,1020.92
2017-11-01T01:35:03.132Z,1020.93
2017-11-01T01:40:02.870Z,1020.83
2017-11-01T01:45:03.370Z,1020.9
2017-11-01T01:50:02.989Z,1020.92
2017-11-01T01:55:03.503Z,1020.93
2017-11-01T02:00:03.230Z,1020.88
2017-11-01T02:05:02.974Z,1020.92
2017-11-01T02:10:02.850Z,1020.97
2017-11-01T02:15:03.529Z,1020.91
2017-11-01T02:20:03.328Z,1020.93
2017-11-01T02:25:03.150Z,1020.9
2017-11-01T02:30:02.961Z,1020.91
2017-11-01T02:35:03.514Z,1020.84
2017-11-01T02:40:03.039Z,1020.85
2017-11-01T02:45:02.726Z,1020.86
2017-11-01T02:50:03.379Z,1020.83
2017-11-01T02:55:03.139Z,1020.8
2017-11-01T03:00:02.671Z,1020.75
2017-11-01T03:05:03.337Z,1020.74
2017-11-01T03:10:03.126Z,1020.82
2017-11-01T03:15:02.792Z,1020.82
2017-11-01T03:20:03.330Z,1020.84
2017-11-01T03:25:02.983Z,1020.76
2017-11-01T03:30:02.734Z,1020.69
2017-11-01T03:35:03.564Z,1020.68
2017-11-01T03:40:03.207Z,1020.71
2017-11-01T03:45:02.706Z,1020.6
2017-11-01T03:50:03.415Z,1020.63
2017-11-01T03:55:03.129Z,1020.6
2017-11-01T04:00:02.903Z,1020.5
2017-11-01T04:05:03.406Z,1020.52
2017-11-01T04:10:03.154Z,1020.45
2017-11-01T04:15:02.957Z,1020.4
2017-11-01T04:20:03.595Z,1020.36
2017-11-01T04:25:03.299Z,1020.39
2017-11-01T04:30:02.941Z,1020.41
2017-11-01T04:35:02.738Z,1020.41
2017-11-01T04:40:03.509Z,1020.49
2017-11-01T04:45:02.945Z,1020.32
2017-11-01T04:50:03.553Z,1020.32
2017-11-01T04:55:03.090Z,1020.46
2017-11-01T05:00:02.732Z,1020.5
2017-11-01T05:05:03.308Z,1020.5
2017-11-01T05:10:03.150Z,1020.58
2017-11-01T05:15:03.592Z,1020.52
2017-11-01T05:20:03.266Z,1020.46
2017-11-01T05:25:02.900Z,1020.29
2017-11-01T05:30:03.581Z,1020.47
2017-11-01T05:35:03.113Z,1020.42
2017-11-01T05:40:02.868Z,1020.42
2017-11-01T05:45:03.482Z,1020.47
2017-11-01T05:50:03.163Z,1020.52
2017-11-01T05:55:02.786Z,1020.59
2017-11-01T06:00:03.481Z,1020.51
2017-11-01T06:05:03.250Z,1020.57
2017-11-01T06:10:02.979Z,1020.39
2017-11-01T06:15:02.779Z,1020.49
2017-11-01T06:20:03.233Z,1020.56
2017-11-01T06:25:02.883Z,1020.61
2017-11-01T06:30:03.367Z,1020.68
2017-11-01T06:35:03.004Z,1020.7
2017-11-01T06:45:03.384Z,1020.84
2017-11-01T06:50:02.957Z,1020.91
2017-11-01T06:55:03.439Z,1021.15
2017-11-01T07:00:02.987Z,1021.15
2017-11-01T07:05:03.565Z,1021.19
2017-11-01T07:10:03.237Z,1021.23
2017-11-01T07:15:02.805Z,1021.31
2017-11-01T07:20:03.199Z,1021.31
2017-11-01T07:25:03.537Z,1021.31
2017-11-01T07:30:02.941Z,1021.31
2017-11-01T07:35:03.435Z,1021.31
2017-11-01T07:40:03.102Z,1021.31
2017-11-01T07:45:03.617Z,1021.31
2017-11-01T07:50:03.224Z,1021.31
2017-11-01T07:55:02.776Z,1021.31
2017-11-01T08:00:03.371Z,1021.31
2017-11-01T08:05:03.006Z,1021.31
2017-11-01T08:10:03.509Z,1021.31
2017-11-01T08:15:02.867Z,1021.31
2017-11-01T08:20:03.471Z,1021.31
2017-11-01T08:25:03.079Z,1021.31
2017-11-01T08:30:03.601Z,1021.31
2017-11-01T08:35:03.085Z,1021.31
2017-11-01T08:40:03.533Z,1021.31
2017-11-01T08:45:02.893Z,1021.31
2017-11-01T08:50:03.358Z,1021.31
2017-11-01T08:55:02.814Z,1021.31
2017-11-01T09:00:03.390Z,1021.31
2017-11-01T09:05:02.821Z,1021.31
2017-11-01T09:10:03.246Z,1021.31
2017-11-01T09:15:02.618Z,1021.31
2017-11-01T09:20:03.074Z,1021.31
2017-11-01T09:25:02.700Z,1021.31
2017-11-01T09:30:03.236Z,1021.31
2017-11-01T09:35:02.757Z,1021.31
2017-11-01T09:40:03.158Z,1021.31
2017-11-01T09:45:03.586Z,1021.31
2017-11-01T09:50:03.312Z,1021.31
2017-11-01T09:55:02.696Z,1021.31
2017-11-01T10:00:03.340Z,1021.31
2017-11-01T10:05:02.812Z,1021.31
2017-11-01T10:10:03.328Z,1021.31
2017-11-01T10:15:02.813Z,1021.31
2017-11-01T10:20:03.332Z,1021.31
2017-11-01T10:25:02.819Z,1021.31
2017-11-01T10:30:03.290Z,1021.31
2017-11-01T10:35:03.116Z,1021.31
2017-11-01T10:40:03.644Z,1021.31
2017-11-01T10:45:03.290Z,1021.31
2017-11-01T10:50:02.860Z,1021.31
2017-11-01T10:55:03.452Z,1021.31
2017-11-01T11:00:02.917Z,1021.31
2017-11-01T11:05:03.317Z,1021.31
2017-11-01T11:10:02.826Z,1021.31
2017-11-01T11:15:03.385Z,1021.31
2017-11-01T11:20:02.977Z,1021.31
2017-11-01T11:25:03.479Z,1021.31
2017-11-01T11:30:02.821Z,1021.31
2017-11-01T11:35:03.386Z,1021.31
2017-11-01T11:40:02.952Z,1021.31
2017-11-01T11:45:03.363Z,1021.31
2017-11-01T11:50:02.819Z,1021.31
2017-11-01T11:55:03.296Z,1021.31
2017-11-01T12:00:02.882Z,1021.31
2017-11-01T12:05:03.350Z,1021.31
2017-11-01T12:10:02.998Z,1021.31
2017-11-01T12:15:03.406Z,1021.31
2017-11-01T12:20:02.874Z,1021.31
2017-11-01T12:25:03.398Z,1021.31
2017-11-01T12:30:02.876Z,1021.31
2017-11-01T12:35:03.560Z,1021.31
2017-11-01T12:40:03.114Z,1021.31
2017-11-01T12:45:03.538Z,1021.31
2017-11-01T12:50:03.120Z,1021.31
2017-11-01T12:55:02.715Z,1021.31
2017-11-01T13:00:03.145Z,1021.31
2017-11-01T13:05:02.693Z,1021.31
2017-11-01T13:10:03.381Z,1021.31
2017-11-01T13:15:02.849Z,1021.31
2017-11-01T13:20:03.487Z,1021.31
2017-11-01T13:25:03.160Z,1021.31
2017-11-01T13:30:03.532Z,1021.31
2017-11-01T13:35:03.104Z,1021.31
2017-11-01T13:40:03.569Z,1021.31
2017-11-01T13:45:03.179Z,1021.31
2017-11-01T13:50:02.773Z,1021.31
2017-11-01T13:55:03.402Z,1021.31
2017-11-01T14:00:02.847Z,1021.31
2017-11-01T14:05:03.344Z,1021.31
2017-11-01T14:10:02.828Z,1021.31
2017-11-01T14:15:03.222Z,1021.31
2017-11-01T14:20:03.670Z,1021.31
2017-11-01T14:25:03.291Z,1021.31
2017-11-01T14:30:02.854Z,1021.31
2017-11-01T14:35:03.389Z,1021.31
2017-11-01T14:40:02.890Z,1021.31
2017-11-01T14:45:03.544Z,1021.31
2017-11-01T14:50:02.956Z,1021.31
2017-11-01T14:55:03.569Z,1021.31
2017-11-01T15:00:02.993Z,1021.31
2017-11-01T15:05:03.435Z,1021.31
2017-11-01T15:10:03.071Z,1021.31
2017-11-01T15:15:03.450Z,1021.31
2017-11-01T15:20:02.902Z,1021.31
2017-11-01T15:25:03.339Z,1021.31
2017-11-01T15:30:02.936Z,1021.31
2017-11-01T15:35:03.468Z,1021.31
2017-11-01T15:40:02.872Z,1021.31
2017-11-01T15:45:03.302Z,1021.31
2017-11-01T15:50:02.732Z,1021.31
2017-11-01T15:55:03.334Z,1021.31
2017-11-01T16:00:03.206Z,1021.31
2017-11-01T16:05:02.869Z,1021.31
2017-11-01T16:10:03.487Z,1021.31
2017-11-01T16:15:03.098Z,1021.31
2017-11-01T16:20:02.693Z,1021.31
2017-11-01T16:25:03.272Z,1021.31
2017-11-01T16:30:02.625Z,1021.31
2017-11-01T16:35:03.054Z,1021.31
2017-11-01T16:40:03.568Z,1021.31
2017-11-01T16:45:03.230Z,1021.31
2017-11-01T16:50:02.723Z,1021.31
2017-11-01T16:55:03.166Z,1021.31
2017-11-01T17:00:02.762Z,1021.31
2017-11-01T17:05:03.244Z,1021.31
2017-11-01T17:10:03.887Z,1021.31
2017-11-01T17:15:03.244Z,1021.31
2017-11-01T17:20:02.835Z,1021.31
2017-11-01T17:25:03.357Z,1021.31
2017-11-01T17:30:03.033Z,1021.31
2017-11-01T17:35:02.702Z,1021.31
2017-11-01T17:40:03.384Z,1021.31
2017-11-01T17:45:03.038Z,1021.31
2017-11-01T17:50:02.619Z,1021.31
2017-11-01T17:55:02.998Z,1021.31
2017-11-01T18:00:03.520Z,1021.31
2017-11-01T18:05:03.117Z,1021.31
2017-11-01T18:10:03.620Z,1021.31
2017-11-01T18:15:03.168Z,1021.31
2017-11-01T18:20:02.728Z,1021.31
2017-11-01T18:25:03.164Z,1021.31
2017-11-01T18:30:02.759Z,1021.31
2017-11-01T18:35:03.180Z,1021.31
2017-11-01T18:40:02.678Z,1021.31
2017-11-01T18:45:03.309Z,1021.31
2017-11-01T18:50:02.789Z,1021.31
2017-11-01T18:55:03.327Z,1021.31
2017-11-01T19:00:02.725Z,1021.31
2017-11-01T19:05:03.358Z,1021.31
2017-11-01T19:10:03.026Z,1021.31
2017-11-01T19:15:03.492Z,1021.31
2017-11-01T19:20:03.050Z,1021.31
2017-11-01T19:25:03.544Z,1021.31
2017-11-01T19:30:03.105Z,1021.31
2017-11-01T19:35:02.699Z,1021.31
2017-11-01T19:40:03.332Z,1021.31
2017-11-01T19:45:02.959Z,1021.31
2017-11-01T19:50:03.633Z,1021.31
2017-11-01T19:55:03.028Z,1021.31
2017-11-01T20:00:03.639Z,1021.31
2017-11-01T20:05:03.116Z,1021.31
2017-11-01T20:10:02.816Z,1021.31
2017-11-01T20:15:03.366Z,1021.31
2017-11-01T20:20:02.866Z,1021.31
2017-11-01T20:25:04.285Z,1021.31
2017-11-01T20:30:02.943Z,1021.31
2017-11-01T20:35:03.587Z,1021.31
2017-11-01T20:40:03.030Z,1021.31
2017-11-01T20:45:02.715Z,1021.31
2017-11-01T20:50:03.121Z,1021.31
2017-11-01T20:55:03.579Z,1021.31
2017-11-01T21:00:02.948Z,1021.31
2017-11-01T21:05:03.456Z,1021.31
2017-11-01T21:10:02.945Z,1021.31
2017-11-01T21:15:03.461Z,1021.31
2017-11-01T21:20:03.067Z,1021.31
2017-11-01T21:25:03.618Z,1021.31
2017-11-01T21:30:03.190Z,1021.31
2017-11-01T21:35:02.706Z,1021.31
2017-11-01T21:40:03.252Z,1021.31
2017-11-01T21:45:02.731Z,1021.31
2017-11-01T21:50:03.309Z,1021.31
2017-11-01T21:55:02.791Z,1021.31
2017-11-01T22:00:03.455Z,1021.31
2017-11-01T22:05:03.154Z,1021.31
2017-11-01T22:10:02.830Z,1021.31
2017-11-01T22:15:03.345Z,1021.31
2017-11-01T22:20:02.779Z,1021.31
2017-11-01T22:25:03.177Z,1021.31
2017-11-01T22:30:02.978Z,1021.31
2017-11-01T22:35:03.487Z,1021.31
2017-11-01T22:40:02.967Z,1021.31
2017-11-01T22:45:03.325Z,1021.31
2017-11-01T22:50:02.725Z,1021.31
2017-11-01T22:55:03.254Z,1021.31
2017-11-01T23:00:02.724Z,1021.31
2017-11-01T23:05:03.298Z,1021.31
2017-11-01T23:10:02.858Z,1021.31
2017-11-01T23:15:03.436Z,1021.31
2017-11-01T23:20:02.856Z,1021.31
2017-11-01T23:25:03.319Z,1021.31
2017-11-01T23:30:02.721Z,1021.31
2017-11-01T23:35:03.385Z,1021.31
2017-11-01T23:40:02.718Z,1021.31
2017-11-01T23:45:03.201Z,1021.31
2017-11-01T23:50:02.841Z,1021.31
2017-11-01T23:55:03.406Z,1021.31
